Accueil
METAR-TAF:

METAR-TAF

Aéroports :

Boscombe Down, Angleterre

latitude: 51-10N, longitude: 001-45W, altitude: 124 m

Observation

Le bulletin a été fait il y a 1 heure et 0 minutes, à 17:50 UTC
Vent 4 kt de est/sud-est
Température 10°C
Humidité 100%
Pression 1017 hPa
Visibilité 10 km ou plus
pluie faible

METAR: EGDM 171750Z AUTO 12004KT 9999 -RA OVC070/// 10/10 Q1017

Heure: 19:50 (18:50 UTC)

Prévision

Le bulletin a été fait il y a 5 heures et 11 minutes, à 13:39 UTC
Prévision valable du 17 à 15 UTC au 17 à 18 UTC
Vent 5 kt de sud
Visibilité 10 km ou plus
Nuages fragmentés à une hauteur de 4500 ft

TAF: EGDM 171339Z 1715/1718 19005KT 9999 BKN045

Observations et prévisions météorologiques de plus de 4000 aéroports (messages METAR et TAF).

Les stations disponibles sont représentées par des disques jaunes et rouges sur la carte.

Passer la souris dessus pour voir le nom de la station.

Cliquer dessus pour voir les observations et prévisions météorologiques.

Pour changer de carte: cliquez sur les boutons verts avec une croix noire pour zoomer, sur le bouton vert avec un tiret pour effectuer un zoom arrière, ou sur les flèches vertes pour les cartes adjacentes.


METAR-TAF: